Time;durP1;ratioP1;P1;durP2;ratioP2;P2;SDS_P1;SDS_P2;PMS_P1;PMS_P2;Temp;Humidity;BMP_temperature;BMP_pressure;BME280_temperature;BME280_humidity;BME280_pressure;Samples;Min_cycle;Max_cycle;Signal;HPM_P1;HPM_P2
2023/03/31 00:00:21;;;;;;;6.90;4.25;;;;;;;-0.69;77.37;98492.47;5070943;28;20068;-64
2023/03/31 00:02:47;;;;;;;6.22;4.75;;;;;;;-0.58;77.13;98485.94;5054044;28;20177;-63
2023/03/31 00:05:16;;;;;;;7.13;4.63;;;;;;;-0.52;76.76;98483.41;5072294;28;20044;-64
2023/03/31 00:07:44;;;;;;;6.07;4.43;;;;;;;-0.46;76.35;98476.63;5071904;28;20050;-63
2023/03/31 00:10:10;;;;;;;6.18;4.13;;;;;;;-0.48;76.33;98478.59;5070727;28;20037;-62
2023/03/31 00:12:36;;;;;;;6.22;4.57;;;;;;;-0.47;76.34;98472.44;5070481;28;20052;-64
2023/03/31 00:15:02;;;;;;;5.05;3.67;;;;;;;-0.53;76.12;98479.19;5070495;28;20349;-63
2023/03/31 00:17:31;;;;;;;4.93;3.40;;;;;;;-0.48;75.90;98471.59;5052714;28;20036;-62
2023/03/31 00:20:04;;;;;;;4.85;3.22;;;;;;;-0.50;76.03;98468.41;5070329;28;20060;-62
2023/03/31 00:22:30;;;;;;;5.28;3.88;;;;;;;-0.48;76.04;98478.59;5053726;28;20135;-63
2023/03/31 00:24:56;;;;;;;6.22;4.13;;;;;;;-0.46;76.28;98468.81;5070272;28;20399;-63
2023/03/31 00:27:21;;;;;;;6.60;4.30;;;;;;;-0.47;75.96;98464.63;5071301;28;20051;-62
2023/03/31 00:29:49;;;;;;;6.60;3.63;;;;;;;-0.44;75.50;98468.63;5053806;28;20044;-63
2023/03/31 00:32:15;;;;;;;7.50;4.00;;;;;;;-0.37;75.20;98467.69;5070159;28;20072;-62
2023/03/31 00:34:41;;;;;;;5.15;3.90;;;;;;;-0.36;75.44;98469.28;5070162;28;20079;-64
2023/03/31 00:37:08;;;;;;;5.75;3.55;;;;;;;-0.33;75.53;98474.13;5071560;28;20048;-63
2023/03/31 00:39:35;;;;;;;5.43;3.65;;;;;;;-0.36;74.43;98477.09;5071277;28;20411;-63
2023/03/31 00:42:02;;;;;;;5.80;3.85;;;;;;;-0.49;74.22;98477.81;5071281;28;20509;-62
2023/03/31 00:44:29;;;;;;;5.63;3.92;;;;;;;-0.47;74.65;98467.22;5070486;28;20140;-63
2023/03/31 00:47:01;;;;;;;7.95;3.72;;;;;;;-0.34;74.57;98484.72;5070509;28;20040;-62
2023/03/31 00:49:56;;;;;;;5.10;3.88;;;;;;;-0.33;74.46;98475.91;5070352;28;20558;-62
2023/03/31 00:52:36;;;;;;;5.85;4.00;;;;;;;-0.34;74.64;98472.50;5070023;28;20079;-62
2023/03/31 00:55:08;;;;;;;4.70;3.47;;;;;;;-0.39;74.27;98479.28;5071676;28;20048;-61
2023/03/31 00:57:38;;;;;;;5.00;3.90;;;;;;;-0.48;74.59;98474.19;5070357;28;20071;-63
2023/03/31 01:00:14;;;;;;;5.30;3.30;;;;;;;-0.47;74.67;98467.22;5070076;28;20053;-62
2023/03/31 01:02:50;;;;;;;6.15;3.85;;;;;;;-0.50;74.80;98460.59;5069994;28;20052;-62
2023/03/31 01:05:18;;;;;;;6.60;3.50;;;;;;;-0.62;75.04;98459.47;5070168;28;20462;-64
2023/03/31 01:07:47;;;;;;;5.78;4.13;;;;;;;-0.70;75.59;98459.63;5070092;28;20067;-63
2023/03/31 01:10:13;;;;;;;6.00;3.78;;;;;;;-0.73;75.48;98460.81;5071478;28;20131;-64
2023/03/31 01:12:40;;;;;;;6.95;3.58;;;;;;;-0.80;75.87;98459.91;5053250;28;20488;-62
2023/03/31 01:15:07;;;;;;;5.38;3.63;;;;;;;-0.85;76.09;98454.50;5036608;28;20083;-64
2023/03/31 01:17:33;;;;;;;4.78;3.50;;;;;;;-0.88;76.45;98459.25;5071326;28;20131;-63
2023/03/31 01:20:13;;;;;;;5.55;3.80;;;;;;;-1.01;76.50;98462.53;5071239;28;20083;-63
2023/03/31 01:22:58;;;;;;;;;;;;;;;-1.01;77.09;98446.94;5071359;28;20044;-64
2023/03/31 01:25:37;;;;;;;6.63;4.22;;;;;;;-1.06;77.05;98451.88;5069869;28;19928;-63
2023/03/31 01:28:12;;;;;;;7.15;3.60;;;;;;;-1.08;77.01;98449.47;5069726;28;20127;-62
2023/03/31 01:31:01;;;;;;;5.43;3.83;;;;;;;-1.14;77.48;98434.59;5053099;28;20048;-63
2023/03/31 01:34:12;;;;;;;5.57;3.40;;;;;;;-1.18;77.95;98431.59;5071017;28;20066;-62
2023/03/31 01:37:18;;;;;;;4.93;3.90;;;;;;;-1.09;77.46;98428.84;5064448;28;20056;-63
2023/03/31 01:39:55;;;;;;;7.03;4.07;;;;;;;-1.06;77.52;98426.69;5052399;28;20061;-62
2023/03/31 01:42:36;;;;;;;4.22;3.35;;;;;;;-1.32;77.29;98397.81;5069391;28;20106;-64
2023/03/31 01:45:18;;;;;;;6.03;3.60;;;;;;;-1.16;77.21;98421.78;5053309;28;20048;-63
2023/03/31 01:47:49;;;;;;;7.20;3.97;;;;;;;-1.17;77.86;98421.97;5070893;28;20044;-63
2023/03/31 01:50:27;;;;;;;7.22;4.00;;;;;;;-1.21;78.35;98425.91;5071112;28;20048;-64
2023/03/31 01:53:14;;;;;;;7.13;4.07;;;;;;;-1.26;78.31;98430.91;5069527;28;20189;-62
2023/03/31 01:56:05;;;;;;;6.35;3.92;;;;;;;-1.25;78.19;98420.28;5053133;28;20052;-62
2023/03/31 01:58:40;;;;;;;6.47;3.70;;;;;;;-1.28;78.40;98425.06;5052555;28;20505;-62
2023/03/31 02:01:36;;;;;;;4.38;3.25;;;;;;;-1.39;78.72;98416.75;5069736;28;20459;-62
2023/03/31 02:04:07;;;;;;;3.97;3.30;;;;;;;-1.45;78.48;98414.09;5052628;28;20516;-62
2023/03/31 02:06:38;;;;;;;6.50;4.38;;;;;;;-1.57;79.04;98416.34;5069459;28;20529;-63
2023/03/31 02:09:09;;;;;;;5.15;3.88;;;;;;;-1.65;79.55;98416.47;5033056;28;20045;-62
2023/03/31 02:11:37;;;;;;;6.78;4.63;;;;;;;-1.75;79.47;98415.94;5033166;28;20080;-62
2023/03/31 02:14:04;;;;;;;7.45;4.85;;;;;;;-1.76;79.79;98415.16;5053141;28;20498;-63
2023/03/31 02:16:57;;;;;;;4.53;3.75;;;;;;;-1.79;80.11;98402.53;5039692;28;20517;-62
2023/03/31 02:19:25;;;;;;;6.43;4.28;;;;;;;-1.80;79.98;98400.91;5053906;28;20077;-62
2023/03/31 02:21:51;;;;;;;9.27;4.20;;;;;;;-1.89;80.39;98389.81;5052771;28;20422;-62
2023/03/31 02:24:19;;;;;;;7.10;4.28;;;;;;;-1.92;80.67;98400.56;5054230;28;20041;-62
2023/03/31 02:26:52;;;;;;;7.63;4.50;;;;;;;-1.91;80.75;98396.16;5052624;28;20510;-61
2023/03/31 02:29:19;;;;;;;6.00;4.15;;;;;;;-1.96;81.04;98407.09;5052835;28;20068;-63
2023/03/31 02:32:28;;;;;;;6.47;3.90;;;;;;;-2.06;81.29;98404.81;5052913;28;20464;-61
2023/03/31 02:34:54;;;;;;;7.47;4.53;;;;;;;-2.04;81.64;98407.19;5068813;28;20056;-63
2023/03/31 02:37:21;;;;;;;7.05;4.57;;;;;;;-2.08;81.51;98408.56;5055980;28;20047;-61
2023/03/31 02:39:50;;;;;;;6.30;4.32;;;;;;;-2.16;81.95;98393.06;5072573;28;20044;-64
2023/03/31 02:42:16;;;;;;;10.43;4.68;;;;;;;-2.11;81.59;98401.13;5073564;28;20040;-62
2023/03/31 02:44:41;;;;;;;7.65;4.20;;;;;;;-2.10;81.52;98408.72;5056072;28;20036;-63
2023/03/31 02:47:10;;;;;;;6.65;4.97;;;;;;;-2.08;81.45;98403.38;5072345;28;20045;-62
2023/03/31 02:49:38;;;;;;;6.20;4.35;;;;;;;-2.12;81.85;98399.50;5072594;28;20047;-63
2023/03/31 02:52:36;;;;;;;6.47;4.80;;;;;;;-2.12;81.72;98402.09;5071680;28;20041;-62
2023/03/31 02:55:36;;;;;;;5.97;4.47;;;;;;;-2.22;81.76;98388.59;5072578;28;20143;-62
2023/03/31 02:58:26;;;;;;;9.70;5.05;;;;;;;-2.16;81.71;98395.66;5055487;28;20044;-63
2023/03/31 03:01:05;;;;;;;8.87;5.23;;;;;;;-2.23;81.95;98385.19;5072463;28;20044;-63
2023/03/31 03:03:37;;;;;;;8.63;5.35;;;;;;;-2.24;82.53;98391.34;5056118;28;20116;-62
2023/03/31 03:06:23;;;;;;;7.88;4.68;;;;;;;-2.27;82.47;98396.91;5072298;28;20049;-62
2023/03/31 03:09:33;;;;;;;8.00;4.78;;;;;;;-2.27;82.48;98396.91;5073001;28;20083;-62
2023/03/31 03:12:10;;;;;;;7.00;4.47;;;;;;;-2.25;82.34;98402.75;5055245;28;20044;-63
2023/03/31 03:14:47;;;;;;;7.05;4.70;;;;;;;-2.28;82.11;98396.09;5055083;28;20040;-63
2023/03/31 03:17:26;;;;;;;6.78;4.18;;;;;;;-2.33;82.13;98403.63;5038447;28;20147;-63
2023/03/31 03:19:54;;;;;;;8.35;4.75;;;;;;;-2.37;82.17;98397.19;5071965;28;20056;-63
2023/03/31 03:22:20;;;;;;;7.70;4.53;;;;;;;-2.32;81.92;98399.25;5072643;28;20089;-63
2023/03/31 03:24:46;;;;;;;9.13;4.53;;;;;;;-2.26;81.74;98398.53;5071650;28;20041;-63
2023/03/31 03:27:11;;;;;;;6.15;4.40;;;;;;;-2.28;81.88;98397.91;5073052;28;20490;-63
2023/03/31 03:29:37;;;;;;;7.78;4.60;;;;;;;-2.23;81.36;98405.16;5053997;28;20052;-61
2023/03/31 03:32:03;;;;;;;6.38;4.40;;;;;;;-2.22;81.20;98404.97;5072651;28;20102;-62
2023/03/31 03:34:28;;;;;;;6.70;4.25;;;;;;;-2.19;81.02;98396.81;5073016;28;20036;-63
2023/03/31 03:36:54;;;;;;;6.30;4.07;;;;;;;-2.19;80.76;98406.41;5071454;28;20051;-62
2023/03/31 03:39:20;;;;;;;6.95;4.22;;;;;;;-2.18;81.31;98410.59;5073055;28;20048;-64
2023/03/31 03:41:45;;;;;;;7.50;4.75;;;;;;;-2.20;81.19;98418.59;5072527;28;20213;-63
2023/03/31 03:44:11;;;;;;;7.38;4.57;;;;;;;-2.18;81.29;98400.22;5071401;28;20052;-63
2023/03/31 03:46:37;;;;;;;7.28;3.90;;;;;;;-2.18;81.31;98398.44;5054262;28;20494;-61
2023/03/31 03:49:03;;;;;;;7.53;4.50;;;;;;;-2.11;81.24;98388.94;5072262;28;20037;-63
2023/03/31 03:51:28;;;;;;;5.50;4.18;;;;;;;-2.04;80.73;98393.41;5071784;28;20078;-62
2023/03/31 03:53:54;;;;;;;6.80;4.45;;;;;;;-1.96;80.55;98381.13;5071706;28;20041;-63
2023/03/31 03:56:20;;;;;;;6.28;3.92;;;;;;;-1.97;79.71;98386.50;5071717;28;20038;-62
2023/03/31 03:58:46;;;;;;;4.70;3.38;;;;;;;-2.00;79.57;98366.09;5071622;28;20067;-63
2023/03/31 04:01:13;;;;;;;5.20;3.65;;;;;;;-1.91;79.85;98377.97;5070644;28;20036;-63
2023/03/31 04:03:38;;;;;;;6.35;4.20;;;;;;;-1.97;79.75;98374.34;5070922;28;20044;-62
2023/03/31 04:06:04;;;;;;;5.70;3.80;;;;;;;-1.98;79.71;98369.31;5072386;28;20089;-63
2023/03/31 04:08:30;;;;;;;5.93;3.95;;;;;;;-1.96;79.57;98372.53;5072266;28;20045;-62
2023/03/31 04:10:56;;;;;;;5.10;3.97;;;;;;;-1.98;80.02;98366.72;5071956;28;20041;-64
2023/03/31 04:13:22;;;;;;;8.30;4.50;;;;;;;-1.95;79.76;98367.16;5072069;28;20040;-63
2023/03/31 04:15:48;;;;;;;6.28;3.67;;;;;;;-1.87;79.52;98359.25;5072007;28;20040;-64
2023/03/31 04:18:22;;;;;;;6.85;4.40;;;;;;;-1.84;79.43;98350.31;5071468;28;20517;-61
2023/03/31 04:21:04;;;;;;;6.55;4.30;;;;;;;-1.80;79.37;98350.75;5070508;28;20059;-63
2023/03/31 04:23:41;;;;;;;5.85;4.40;;;;;;;-1.73;79.30;98344.63;5070451;28;20049;-65
2023/03/31 04:26:10;;;;;;;9.45;4.63;;;;;;;-1.62;78.74;98340.72;5054902;28;20044;-62
2023/03/31 04:28:37;;;;;;;6.40;4.60;;;;;;;-1.55;78.38;98343.41;5071698;28;20086;-62
2023/03/31 04:31:05;;;;;;;8.45;5.00;;;;;;;-1.48;78.27;98339.88;5071339;28;20456;-63
2023/03/31 04:33:33;;;;;;;6.68;4.45;;;;;;;-1.37;77.82;98339.38;5032352;28;20485;-62
2023/03/31 04:36:05;;;;;;;7.80;4.93;;;;;;;-1.27;77.48;98333.06;5050563;28;20040;-63
2023/03/31 04:38:32;;;;;;;6.75;4.22;;;;;;;-1.23;76.99;98329.91;5067694;28;20559;-62
2023/03/31 04:40:58;;;;;;;8.48;4.50;;;;;;;-1.02;76.86;98330.88;5068302;28;20147;-63
2023/03/31 04:43:24;;;;;;;7.78;4.78;;;;;;;-0.90;75.84;98324.16;5071002;28;20044;-62
2023/03/31 04:45:50;;;;;;;5.68;4.57;;;;;;;-0.77;75.74;98332.03;5071269;28;20051;-63
2023/03/31 04:48:16;;;;;;;6.10;4.63;;;;;;;-0.59;75.11;98328.16;5070937;28;20436;-63
2023/03/31 04:50:41;;;;;;;6.45;4.25;;;;;;;-0.56;74.48;98319.94;5069944;28;20125;-63
2023/03/31 04:53:07;;;;;;;8.32;4.55;;;;;;;-0.62;74.40;98310.31;5069334;28;20482;-63
2023/03/31 04:55:33;;;;;;;9.75;4.40;;;;;;;-0.65;74.40;98308.09;5071311;28;20162;-65
2023/03/31 04:57:59;;;;;;;6.45;3.75;;;;;;;-0.73;74.76;98322.88;5071204;28;20036;-64
2023/03/31 05:00:25;;;;;;;6.57;3.83;;;;;;;-0.71;74.63;98315.69;5070021;28;20045;-62
2023/03/31 05:02:51;;;;;;;6.30;4.35;;;;;;;-0.71;74.80;98307.88;5069899;28;20048;-62
2023/03/31 05:05:17;;;;;;;8.52;3.85;;;;;;;-0.66;74.66;98307.28;5070739;28;20055;-65
2023/03/31 05:07:43;;;;;;;6.13;4.22;;;;;;;-0.74;74.39;98307.44;5070918;28;20106;-62
2023/03/31 05:10:09;;;;;;;6.63;3.80;;;;;;;-0.73;74.57;98311.66;5071104;28;20052;-64
2023/03/31 05:12:35;;;;;;;6.57;4.70;;;;;;;-0.88;75.14;98311.78;5071199;28;20127;-64
2023/03/31 05:15:05;;;;;;;8.38;4.00;;;;;;;-0.92;75.11;98310.53;5068658;28;20051;-68
2023/03/31 05:17:32;;;;;;;6.70;4.45;;;;;;;-1.01;75.63;98302.06;5067881;28;20041;-67
2023/03/31 05:19:58;;;;;;;11.00;4.38;;;;;;;-0.94;75.45;98315.94;5070600;28;20056;-66
2023/03/31 05:22:24;;;;;;;7.75;4.28;;;;;;;-0.88;75.11;98308.34;5070353;28;20506;-68
2023/03/31 05:24:50;;;;;;;7.00;4.45;;;;;;;-0.74;74.64;98305.63;5069820;28;20128;-65
2023/03/31 05:27:16;;;;;;;9.52;5.20;;;;;;;-0.79;74.77;98299.41;5069876;28;20505;-67
2023/03/31 05:29:41;;;;;;;8.70;4.30;;;;;;;-0.73;74.89;98296.06;5071390;28;20061;-69
2023/03/31 05:32:07;;;;;;;7.65;4.47;;;;;;;-0.59;74.31;98295.13;5069629;28;20530;-64
2023/03/31 05:34:32;;;;;;;11.23;5.32;;;;;;;-0.47;74.33;98300.59;5051489;28;20526;-63
2023/03/31 05:36:58;;;;;;;6.13;4.25;;;;;;;-0.33;73.50;98317.88;5070253;28;20498;-62
2023/03/31 05:39:24;;;;;;;8.30;4.93;;;;;;;-0.13;72.82;98310.16;5052749;28;20045;-62
2023/03/31 05:41:50;;;;;;;6.28;4.68;;;;;;;0.01;72.56;98313.59;5070431;28;20309;-62
2023/03/31 05:44:16;;;;;;;12.45;5.45;;;;;;;0.20;71.52;98325.88;5070853;28;20102;-62
2023/03/31 05:46:41;;;;;;;6.75;4.43;;;;;;;0.48;70.28;98330.16;5071399;28;20444;-63
2023/03/31 05:49:07;;;;;;;8.25;4.57;;;;;;;0.74;70.38;98324.19;5073346;28;20509;-62
2023/03/31 05:51:33;;;;;;;9.90;4.80;;;;;;;0.89;69.70;98329.19;5074048;28;20039;-61
2023/03/31 05:53:59;;;;;;;6.68;4.10;;;;;;;1.14;68.44;98321.53;5071082;28;20037;-62
2023/03/31 05:56:26;;;;;;;5.28;3.67;;;;;;;1.18;67.54;98327.16;5070354;28;20109;-62
2023/03/31 05:58:52;;;;;;;5.75;3.78;;;;;;;1.14;67.31;98321.53;5073230;28;20492;-61
2023/03/31 06:01:18;;;;;;;6.32;4.03;;;;;;;0.87;68.51;98318.94;5072333;28;20056;-62
2023/03/31 06:03:45;;;;;;;7.68;4.70;;;;;;;0.85;68.92;98323.59;5073530;28;20106;-62
2023/03/31 06:06:12;;;;;;;8.55;4.47;;;;;;;1.09;67.95;98323.97;5071249;28;20079;-61
2023/03/31 06:08:37;;;;;;;5.97;4.03;;;;;;;1.06;68.32;98316.53;5071588;28;20044;-61
2023/03/31 06:11:09;;;;;;;6.05;4.18;;;;;;;1.00;68.01;98312.13;5070702;28;20044;-61
2023/03/31 06:13:36;;;;;;;5.95;4.55;;;;;;;1.13;67.33;98296.47;5070250;28;20699;-62
2023/03/31 06:16:02;;;;;;;7.03;4.55;;;;;;;1.21;67.08;98295.47;5036354;28;20080;-62
2023/03/31 06:18:29;;;;;;;7.07;4.28;;;;;;;1.34;66.88;98298.03;5072867;28;20056;-62
2023/03/31 06:20:56;;;;;;;6.20;3.80;;;;;;;1.48;66.24;98301.41;5067969;28;20052;-63
2023/03/31 06:23:22;;;;;;;8.75;4.30;;;;;;;1.57;65.89;98297.56;5068407;28;20044;-60
2023/03/31 06:25:48;;;;;;;8.25;3.58;;;;;;;1.51;65.49;98293.97;5069244;28;20386;-65
2023/03/31 06:28:14;;;;;;;5.65;4.28;;;;;;;1.46;66.15;98285.13;5068316;28;20063;-63
2023/03/31 06:30:40;;;;;;;5.40;3.70;;;;;;;1.50;66.09;98283.72;5069323;28;20532;-66
2023/03/31 06:33:06;;;;;;;6.07;4.05;;;;;;;1.51;66.11;98285.34;5070128;28;20040;-64
2023/03/31 06:35:32;;;;;;;5.55;4.30;;;;;;;1.52;66.05;98282.50;5072021;28;20091;-66
2023/03/31 06:37:57;;;;;;;9.10;3.78;;;;;;;1.63;65.81;98282.88;5071122;28;20067;-63
2023/03/31 06:40:24;;;;;;;4.93;3.58;;;;;;;1.67;64.93;98289.28;5072483;28;20417;-64
2023/03/31 06:42:50;;;;;;;6.03;4.10;;;;;;;1.87;65.02;98289.22;5072229;28;20490;-62
2023/03/31 06:45:16;;;;;;;6.18;3.60;;;;;;;1.94;65.15;98295.19;5071473;28;20051;-63
2023/03/31 06:47:41;;;;;;;6.05;3.47;;;;;;;1.95;64.29;98295.00;5072093;28;20044;-63
2023/03/31 06:50:10;;;;;;;4.63;3.53;;;;;;;1.88;65.14;98289.00;5069579;28;20446;-60
2023/03/31 06:52:36;;;;;;;5.43;3.50;;;;;;;1.90;64.66;98289.59;5021071;28;20060;-61
2023/03/31 06:55:02;;;;;;;7.07;3.60;;;;;;;1.86;64.54;98293.66;5072365;28;20560;-63
2023/03/31 06:57:30;;;;;;;7.88;3.75;;;;;;;2.09;64.94;98298.38;5069287;28;20032;-63
2023/03/31 06:59:56;;;;;;;5.38;3.40;;;;;;;2.10;64.28;98286.88;5071602;28;20044;-63
2023/03/31 07:02:22;;;;;;;4.00;3.08;;;;;;;2.33;64.22;98302.06;5070842;28;20044;-62
2023/03/31 07:04:47;;;;;;;4.70;3.28;;;;;;;2.38;62.82;98296.16;5069960;28;20079;-63
2023/03/31 07:07:13;;;;;;;4.65;3.38;;;;;;;2.34;63.49;98287.94;5071659;28;20040;-63
2023/03/31 07:09:38;;;;;;;4.85;3.40;;;;;;;2.39;63.56;98271.63;5069757;28;20045;-62
2023/03/31 07:12:04;;;;;;;7.40;3.53;;;;;;;2.34;63.14;98272.25;5071525;28;20070;-63
2023/03/31 07:14:31;;;;;;;5.82;3.40;;;;;;;2.32;63.62;98260.41;5072435;28;20586;-62
2023/03/31 07:16:57;;;;;;;6.05;3.53;;;;;;;2.38;64.28;98270.00;5071739;28;20221;-62
2023/03/31 07:19:22;;;;;;;4.75;3.63;;;;;;;2.46;63.77;98256.69;5070631;28;20125;-63
2023/03/31 07:21:49;;;;;;;8.00;3.95;;;;;;;2.45;63.98;98265.56;5071437;28;20481;-63
2023/03/31 07:24:15;;;;;;;4.78;3.20;;;;;;;2.54;63.29;98263.47;5072272;28;20494;-63
2023/03/31 07:26:41;;;;;;;9.80;3.95;;;;;;;2.34;63.61;98255.78;5069927;28;20097;-62
2023/03/31 07:29:06;;;;;;;6.05;3.83;;;;;;;2.38;63.61;98259.56;5071377;28;20513;-63
2023/03/31 07:31:32;;;;;;;6.30;3.80;;;;;;;2.29;64.32;98251.16;5036327;28;20048;-63
2023/03/31 07:33:58;;;;;;;6.43;3.60;;;;;;;2.30;64.02;98260.63;5071947;28;20055;-63
2023/03/31 07:36:24;;;;;;;7.80;3.85;;;;;;;2.19;64.16;98258.69;5052512;28;20045;-63
2023/03/31 07:38:49;;;;;;;5.55;3.72;;;;;;;2.27;64.34;98254.00;5043794;28;20422;-63
2023/03/31 07:41:19;;;;;;;6.50;3.25;;;;;;;2.31;64.06;98259.59;5068758;28;20040;-63
2023/03/31 07:43:45;;;;;;;5.23;3.30;;;;;;;2.52;63.35;98252.41;5071474;28;20048;-62
2023/03/31 07:46:21;;;;;;;5.07;3.13;;;;;;;2.59;63.26;98247.94;5069526;28;20533;-61
2023/03/31 07:48:47;;;;;;;11.07;4.15;;;;;;;2.66;63.20;98259.94;5070649;28;20478;-61
2023/03/31 07:51:18;;;;;;;7.50;4.38;;;;;;;2.86;62.74;98257.19;5069360;28;20089;-62
2023/03/31 07:53:44;;;;;;;4.72;3.55;;;;;;;2.88;62.73;98264.81;5071072;28;20064;-61
2023/03/31 07:56:11;;;;;;;10.60;4.25;;;;;;;3.07;61.89;98261.22;5069520;28;20536;-62
2023/03/31 07:58:36;;;;;;;6.22;4.00;;;;;;;3.28;61.54;98267.06;5071644;28;20040;-62
2023/03/31 08:01:03;;;;;;;7.10;3.97;;;;;;;3.17;61.52;98258.09;5051631;28;20130;-63
2023/03/31 08:03:30;;;;;;;6.90;3.75;;;;;;;3.44;60.53;98260.41;5068678;28;20045;-62
2023/03/31 08:05:56;;;;;;;5.18;3.83;;;;;;;3.47;60.40;98263.44;5069013;28;20105;-62
2023/03/31 08:08:22;;;;;;;4.95;3.50;;;;;;;3.50;60.63;98257.75;5052048;28;20044;-61
2023/03/31 08:10:48;;;;;;;5.18;3.90;;;;;;;3.85;59.50;98251.88;5069828;28;20047;-63
2023/03/31 08:13:14;;;;;;;8.15;4.22;;;;;;;3.89;59.81;98239.94;5069469;28;20036;-59
2023/03/31 08:15:40;;;;;;;7.13;4.63;;;;;;;4.19;58.65;98242.53;5068855;28;20090;-61
2023/03/31 08:18:07;;;;;;;5.93;4.30;;;;;;;4.33;57.81;98245.78;5068414;28;20048;-60
2023/03/31 08:20:32;;;;;;;7.05;4.10;;;;;;;4.46;57.80;98240.31;5069749;28;20040;-60
2023/03/31 08:22:59;;;;;;;6.78;4.30;;;;;;;4.50;57.77;98245.91;5070416;28;20056;-61
2023/03/31 08:25:24;;;;;;;7.05;4.22;;;;;;;4.63;57.84;98248.31;5070170;28;20045;-61
2023/03/31 08:27:50;;;;;;;6.47;3.88;;;;;;;4.78;57.43;98232.13;5069328;28;20110;-62
2023/03/31 08:30:17;;;;;;;7.38;3.97;;;;;;;4.91;56.36;98237.19;5068170;28;20418;-61
2023/03/31 08:32:43;;;;;;;5.43;4.05;;;;;;;4.90;56.47;98235.56;5069775;28;20094;-62
2023/03/31 08:35:10;;;;;;;11.65;4.57;;;;;;;4.96;56.67;98231.22;5069278;28;20036;-62
2023/03/31 08:37:36;;;;;;;6.95;4.28;;;;;;;5.01;56.01;98231.34;5070092;28;20045;-61
2023/03/31 08:40:08;;;;;;;5.13;4.10;;;;;;;4.91;56.54;98228.47;5071119;28;20037;-61
2023/03/31 08:42:43;;;;;;;7.10;4.10;;;;;;;4.90;56.37;98216.38;5071135;28;20070;-61
2023/03/31 08:45:17;;;;;;;5.38;3.88;;;;;;;4.96;55.78;98220.72;5070146;28;20050;-60
2023/03/31 08:47:44;;;;;;;10.38;3.65;;;;;;;5.05;56.37;98213.28;5050026;28;20049;-60
2023/03/31 08:50:13;;;;;;;5.18;3.75;;;;;;;4.78;56.88;98206.66;5049755;28;20059;-61
2023/03/31 08:52:46;;;;;;;5.20;3.72;;;;;;;4.81;56.65;98199.38;5050318;28;20099;-61
2023/03/31 08:55:31;;;;;;;8.23;3.90;;;;;;;4.89;56.41;98201.66;5049599;28;20062;-63
2023/03/31 08:57:59;;;;;;;5.35;3.97;;;;;;;4.93;55.84;98202.78;5049701;28;20124;-61
2023/03/31 09:00:25;;;;;;;5.63;3.75;;;;;;;5.53;57.04;98188.50;5051209;28;20037;-66
2023/03/31 09:02:58;;;;;;;5.38;3.63;;;;;;;5.84;53.88;98188.03;5050437;28;20045;-62
2023/03/31 09:06:00;;;;;;;9.20;4.18;;;;;;;5.94;54.27;98189.28;5049074;28;20080;-59
2023/03/31 09:08:30;;;;;;;5.53;3.53;;;;;;;5.74;54.57;98187.06;5047990;28;20130;-62
2023/03/31 09:11:07;;;;;;;7.45;4.28;;;;;;;5.64;54.21;98183.19;5066291;28;20044;-63
2023/03/31 09:13:51;;;;;;;5.40;3.60;;;;;;;5.75;54.41;98176.31;5067602;28;20055;-61
2023/03/31 09:16:22;;;;;;;6.72;3.92;;;;;;;5.79;54.87;98179.25;5052069;28;20052;-63
2023/03/31 09:18:49;;;;;;;8.02;4.38;;;;;;;5.62;54.24;98174.78;5070459;28;20056;-62
2023/03/31 09:21:18;;;;;;;6.35;4.25;;;;;;;5.67;54.75;98179.31;5069660;28;20048;-63
2023/03/31 09:23:50;;;;;;;8.73;4.50;;;;;;;5.61;55.31;98182.88;5074353;28;20551;-63
2023/03/31 09:26:54;;;;;;;11.98;4.40;;;;;;;5.52;54.66;98168.50;5054420;28;20040;-61
2023/03/31 09:29:54;;;;;;;9.48;4.60;;;;;;;5.40;54.82;98171.19;5073804;28;20156;-64
2023/03/31 09:32:21;;;;;;;5.85;3.75;;;;;;;5.42;55.85;98154.16;5073305;28;20129;-63
2023/03/31 09:34:51;;;;;;;7.38;4.25;;;;;;;5.53;56.13;98155.16;5039863;28;20089;-62
2023/03/31 09:37:17;;;;;;;6.40;3.83;;;;;;;5.33;55.24;98160.00;5074471;28;20044;-61
2023/03/31 09:39:42;;;;;;;7.88;4.32;;;;;;;5.34;55.14;98156.34;5075008;28;20074;-61
2023/03/31 09:42:11;;;;;;;8.13;4.53;;;;;;;5.07;56.29;98156.06;5074196;28;20075;-65
2023/03/31 09:44:43;;;;;;;10.27;4.50;;;;;;;5.20;55.77;98146.09;5040082;28;20052;-63
2023/03/31 09:47:20;;;;;;;4.80;3.95;;;;;;;5.19;56.38;98135.84;5074337;28;20041;-65
2023/03/31 09:49:46;;;;;;;6.50;3.95;;;;;;;5.28;55.87;98137.06;5073268;28;20044;-62
2023/03/31 09:52:22;;;;;;;9.90;3.90;;;;;;;5.26;55.40;98135.69;5074660;28;20532;-69
2023/03/31 09:54:53;;;;;;;5.78;4.10;;;;;;;5.15;56.48;98138.13;5074236;28;20037;-63
2023/03/31 09:57:27;;;;;;;6.93;4.53;;;;;;;5.15;55.44;98116.31;5072591;28;20316;-66
2023/03/31 10:00:03;;;;;;;7.80;4.40;;;;;;;5.28;55.38;98110.78;5055595;28;20044;-61
2023/03/31 10:02:44;;;;;;;6.28;4.05;;;;;;;5.42;56.62;98106.84;5073625;28;20040;-62
2023/03/31 10:05:31;;;;;;;8.82;4.30;;;;;;;5.70;54.80;98105.22;5072894;28;20048;-61
2023/03/31 10:08:09;;;;;;;8.10;3.92;;;;;;;5.76;55.03;98096.38;5073954;28;20041;-62
2023/03/31 10:10:35;;;;;;;5.07;3.90;;;;;;;5.63;54.25;98099.31;5072485;28;20045;-61
2023/03/31 10:13:07;;;;;;;6.90;3.83;;;;;;;5.68;54.54;98099.41;5072935;28;20040;-62
2023/03/31 10:15:36;;;;;;;6.60;4.72;;;;;;;5.69;54.65;98098.38;5056296;28;20041;-63
2023/03/31 10:18:02;;;;;;;7.38;4.53;;;;;;;5.66;55.59;98106.75;5072152;28;20497;-64
2023/03/31 10:20:37;;;;;;;8.98;4.80;;;;;;;5.63;55.42;98100.13;5074329;28;20044;-62
2023/03/31 10:23:09;;;;;;;4.70;3.88;;;;;;;5.46;55.32;98094.81;5072574;28;20055;-63
2023/03/31 10:25:35;;;;;;;6.18;4.43;;;;;;;5.60;55.26;98097.97;5072704;28;20041;-62
2023/03/31 10:28:02;;;;;;;6.13;3.55;;;;;;;5.40;55.35;98095.75;5071887;28;20071;-64
2023/03/31 10:30:36;;;;;;;4.97;3.80;;;;;;;5.36;55.27;98093.84;5072385;28;20598;-66
2023/03/31 10:33:11;;;;;;;4.97;3.95;;;;;;;5.45;55.69;98100.31;5037651;28;20608;-63
2023/03/31 10:35:36;;;;;;;6.15;3.97;;;;;;;5.50;55.63;98081.19;5071727;28;20490;-63
2023/03/31 10:38:10;;;;;;;7.10;4.22;;;;;;;5.56;55.35;98086.34;5037823;28;20119;-63
2023/03/31 10:40:36;;;;;;;4.63;3.63;;;;;;;5.59;55.30;98093.75;5055205;28;20047;-62
2023/03/31 10:43:20;;;;;;;8.32;4.40;;;;;;;5.34;56.37;98080.94;5072263;28;20055;-63
2023/03/31 10:45:58;;;;;;;7.47;4.28;;;;;;;5.19;56.38;98089.34;5052606;28;20040;-63
2023/03/31 10:48:30;;;;;;;5.57;3.60;;;;;;;5.20;56.80;98093.53;5069773;28;20044;-63
2023/03/31 10:51:26;;;;;;;8.52;4.25;;;;;;;5.28;56.77;98073.19;5071245;28;20494;-64
2023/03/31 10:53:54;;;;;;;6.55;4.15;;;;;;;5.22;56.58;98070.47;5048339;28;20040;-64
2023/03/31 10:56:40;;;;;;;6.88;4.00;;;;;;;5.31;56.22;98060.38;5070909;28;20541;-64
2023/03/31 10:59:30;;;;;;;6.65;4.28;;;;;;;5.31;56.71;98056.97;5051216;28;20064;-63
2023/03/31 11:02:14;;;;;;;10.13;4.18;;;;;;;5.35;56.18;98050.19;5070598;28;20198;-63
2023/03/31 11:05:05;;;;;;;6.28;3.95;;;;;;;5.52;56.27;98047.59;5072751;28;20363;-68
2023/03/31 11:07:36;;;;;;;8.98;4.80;;;;;;;5.51;56.82;98056.53;5069185;28;20059;-63
2023/03/31 11:10:17;;;;;;;8.20;4.20;;;;;;;5.46;56.93;98046.72;5052479;28;20601;-65
2023/03/31 11:12:50;;;;;;;6.25;4.22;;;;;;;5.35;56.23;98043.09;5066094;28;20482;-64
2023/03/31 11:15:31;;;;;;;6.03;4.20;;;;;;;5.38;57.65;98034.78;5065905;28;20041;-65
2023/03/31 11:18:21;;;;;;;7.07;4.43;;;;;;;5.44;57.43;98038.25;5068574;28;20569;-64
2023/03/31 11:21:02;;;;;;;7.18;4.45;;;;;;;5.32;56.96;98033.06;5066768;28;20040;-63
2023/03/31 11:23:37;;;;;;;5.88;3.85;;;;;;;5.38;57.57;98036.59;5069145;28;20049;-63
2023/03/31 11:26:20;;;;;;;5.45;4.07;;;;;;;5.45;56.83;98038.03;5068795;28;20525;-63
2023/03/31 11:29:01;;;;;;;7.72;4.30;;;;;;;5.50;57.53;98015.50;5067992;28;20110;-62
2023/03/31 11:31:47;;;;;;;9.20;5.15;;;;;;;5.48;56.54;98021.00;5069957;28;20048;-64
2023/03/31 11:34:21;;;;;;;6.20;4.55;;;;;;;5.55;57.44;98021.63;5070226;28;20504;-66
2023/03/31 11:37:01;;;;;;;8.88;4.30;;;;;;;5.56;56.58;98007.47;5069032;28;20697;-64
2023/03/31 11:39:37;;;;;;;8.32;4.63;;;;;;;5.49;57.07;98011.28;5069141;28;20113;-62
2023/03/31 11:42:08;;;;;;;11.38;5.88;;;;;;;5.58;56.61;98009.84;5068157;28;20051;-63
2023/03/31 11:44:44;;;;;;;8.73;5.50;;;;;;;5.60;57.18;98010.41;5051005;28;20047;-63
2023/03/31 11:47:18;;;;;;;9.30;4.90;;;;;;;5.57;57.61;98016.16;5051366;28;20037;-65
2023/03/31 11:49:53;;;;;;;8.95;4.90;;;;;;;5.74;56.47;98009.06;5068361;28;20072;-63
2023/03/31 11:52:28;;;;;;;9.00;4.85;;;;;;;5.66;57.29;98010.25;5067961;28;20036;-64
2023/03/31 11:54:58;;;;;;;8.27;4.50;;;;;;;5.64;56.60;98004.44;5069320;28;20063;-62